sensor_id;sensor_type;location;lat;lon;timestamp;pressure;altitude;pressure_sealevel;temperature;humidity
6198;BME280;3132;42.622;23.328;2023-05-23T00:01:17;92701.69;;;10.76;100.00
6198;BME280;3132;42.622;23.328;2023-05-23T00:03:42;92697.06;;;10.68;100.00
6198;BME280;3132;42.622;23.328;2023-05-23T00:06:08;92699.59;;;10.78;100.00
6198;BME280;3132;42.622;23.328;2023-05-23T00:08:34;92691.66;;;10.83;100.00
6198;BME280;3132;42.622;23.328;2023-05-23T00:10:59;92697.59;;;10.94;100.00
6198;BME280;3132;42.622;23.328;2023-05-23T00:13:25;92687.28;;;10.79;100.00
6198;BME280;3132;42.622;23.328;2023-05-23T00:15:51;92680.00;;;10.76;100.00
6198;BME280;3132;42.622;23.328;2023-05-23T00:18:17;92671.31;;;10.57;100.00
6198;BME280;3132;42.622;23.328;2023-05-23T00:20:43;92670.94;;;10.68;100.00
6198;BME280;3132;42.622;23.328;2023-05-23T00:23:10;92676.22;;;10.63;100.00
6198;BME280;3132;42.622;23.328;2023-05-23T00:25:42;92653.22;;;10.42;100.00
6198;BME280;3132;42.622;23.328;2023-05-23T00:28:13;92672.56;;;10.64;100.00
6198;BME280;3132;42.622;23.328;2023-05-23T00:30:39;92680.56;;;10.73;100.00
6198;BME280;3132;42.622;23.328;2023-05-23T00:33:04;92676.88;;;10.50;100.00
6198;BME280;3132;42.622;23.328;2023-05-23T00:35:30;92673.56;;;10.68;100.00
6198;BME280;3132;42.622;23.328;2023-05-23T00:37:55;92672.19;;;10.76;100.00
6198;BME280;3132;42.622;23.328;2023-05-23T00:40:21;92673.69;;;10.58;100.00
6198;BME280;3132;42.622;23.328;2023-05-23T00:42:47;92666.34;;;10.60;100.00
6198;BME280;3132;42.622;23.328;2023-05-23T00:45:13;92677.13;;;10.77;100.00
6198;BME280;3132;42.622;23.328;2023-05-23T00:47:40;92673.00;;;10.95;100.00
6198;BME280;3132;42.622;23.328;2023-05-23T00:50:07;92673.47;;;10.78;100.00
6198;BME280;3132;42.622;23.328;2023-05-23T00:52:34;92652.16;;;10.66;100.00
6198;BME280;3132;42.622;23.328;2023-05-23T00:55:00;92661.44;;;10.77;100.00
6198;BME280;3132;42.622;23.328;2023-05-23T00:57:26;92671.81;;;10.87;100.00
6198;BME280;3132;42.622;23.328;2023-05-23T00:59:51;92665.34;;;10.80;100.00
6198;BME280;3132;42.622;23.328;2023-05-23T01:02:17;92665.56;;;10.83;100.00
6198;BME280;3132;42.622;23.328;2023-05-23T01:04:43;92674.78;;;10.76;100.00
6198;BME280;3132;42.622;23.328;2023-05-23T01:07:08;92672.41;;;10.79;100.00
6198;BME280;3132;42.622;23.328;2023-05-23T01:09:35;92668.00;;;10.75;100.00
6198;BME280;3132;42.622;23.328;2023-05-23T01:12:20;92673.47;;;10.78;100.00
6198;BME280;3132;42.622;23.328;2023-05-23T01:17:54;92686.53;;;10.78;100.00
6198;BME280;3132;42.622;23.328;2023-05-23T01:20:29;92693.28;;;10.79;100.00
6198;BME280;3132;42.622;23.328;2023-05-23T01:28:00;92682.47;;;10.67;100.00
6198;BME280;3132;42.622;23.328;2023-05-23T01:30:31;92674.34;;;10.69;100.00
6198;BME280;3132;42.622;23.328;2023-05-23T01:32:58;92663.59;;;10.75;100.00
6198;BME280;3132;42.622;23.328;2023-05-23T01:35:25;92669.13;;;10.92;100.00
6198;BME280;3132;42.622;23.328;2023-05-23T01:37:52;92662.56;;;10.71;100.00
6198;BME280;3132;42.622;23.328;2023-05-23T01:40:18;92671.75;;;10.92;100.00
6198;BME280;3132;42.622;23.328;2023-05-23T01:42:44;92665.97;;;10.95;100.00
6198;BME280;3132;42.622;23.328;2023-05-23T01:45:10;92652.50;;;10.83;100.00
6198;BME280;3132;42.622;23.328;2023-05-23T01:47:37;92673.56;;;10.92;100.00
6198;BME280;3132;42.622;23.328;2023-05-23T01:50:03;92668.44;;;10.82;100.00
6198;BME280;3132;42.622;23.328;2023-05-23T01:52:30;92667.16;;;10.56;100.00
6198;BME280;3132;42.622;23.328;2023-05-23T01:54:56;92661.16;;;10.55;100.00
6198;BME280;3132;42.622;23.328;2023-05-23T01:57:23;92648.56;;;10.62;100.00
6198;BME280;3132;42.622;23.328;2023-05-23T01:59:49;92646.31;;;10.51;100.00
6198;BME280;3132;42.622;23.328;2023-05-23T02:02:14;92640.06;;;10.52;100.00
6198;BME280;3132;42.622;23.328;2023-05-23T02:04:40;92666.25;;;10.70;100.00
6198;BME280;3132;42.622;23.328;2023-05-23T02:07:05;92660.56;;;10.63;100.00
6198;BME280;3132;42.622;23.328;2023-05-23T02:09:31;92661.78;;;10.47;100.00
6198;BME280;3132;42.622;23.328;2023-05-23T02:11:56;92635.34;;;10.30;100.00
6198;BME280;3132;42.622;23.328;2023-05-23T02:14:23;92667.75;;;10.48;100.00
6198;BME280;3132;42.622;23.328;2023-05-23T02:16:50;92655.66;;;10.33;100.00
6198;BME280;3132;42.622;23.328;2023-05-23T02:19:18;92660.69;;;10.25;100.00
6198;BME280;3132;42.622;23.328;2023-05-23T02:21:43;92654.31;;;10.36;100.00
6198;BME280;3132;42.622;23.328;2023-05-23T02:24:09;92651.75;;;10.31;100.00
6198;BME280;3132;42.622;23.328;2023-05-23T02:26:34;92660.44;;;10.50;100.00
6198;BME280;3132;42.622;23.328;2023-05-23T02:28:59;92656.09;;;10.40;100.00
6198;BME280;3132;42.622;23.328;2023-05-23T02:31:25;92658.19;;;10.38;100.00
6198;BME280;3132;42.622;23.328;2023-05-23T02:33:51;92661.16;;;10.32;100.00
6198;BME280;3132;42.622;23.328;2023-05-23T02:36:17;92657.00;;;10.26;100.00
6198;BME280;3132;42.622;23.328;2023-05-23T02:38:43;92662.41;;;10.34;100.00
6198;BME280;3132;42.622;23.328;2023-05-23T02:41:08;92647.03;;;10.33;100.00
6198;BME280;3132;42.622;23.328;2023-05-23T02:43:34;92647.81;;;10.33;100.00
6198;BME280;3132;42.622;23.328;2023-05-23T02:45:59;92631.97;;;10.25;100.00
6198;BME280;3132;42.622;23.328;2023-05-23T02:48:25;92635.38;;;10.25;100.00
6198;BME280;3132;42.622;23.328;2023-05-23T02:50:50;92643.19;;;10.25;100.00
6198;BME280;3132;42.622;23.328;2023-05-23T02:53:16;92619.84;;;10.10;100.00
6198;BME280;3132;42.622;23.328;2023-05-23T02:55:41;92646.09;;;10.24;100.00
6198;BME280;3132;42.622;23.328;2023-05-23T02:58:07;92639.53;;;10.26;100.00
6198;BME280;3132;42.622;23.328;2023-05-23T03:00:33;92643.50;;;10.19;100.00
6198;BME280;3132;42.622;23.328;2023-05-23T03:02:59;92644.19;;;10.29;100.00
6198;BME280;3132;42.622;23.328;2023-05-23T03:05:24;92642.66;;;10.28;100.00
6198;BME280;3132;42.622;23.328;2023-05-23T03:07:50;92634.78;;;10.33;100.00
6198;BME280;3132;42.622;23.328;2023-05-23T03:10:16;92650.50;;;10.52;100.00
6198;BME280;3132;42.622;23.328;2023-05-23T03:12:42;92651.19;;;10.62;100.00
6198;BME280;3132;42.622;23.328;2023-05-23T03:15:08;92652.34;;;10.98;100.00
6198;BME280;3132;42.622;23.328;2023-05-23T03:17:34;92656.88;;;11.11;100.00
6198;BME280;3132;42.622;23.328;2023-05-23T03:19:59;92646.66;;;10.91;100.00
6198;BME280;3132;42.622;23.328;2023-05-23T03:22:25;92637.38;;;10.80;100.00
6198;BME280;3132;42.622;23.328;2023-05-23T03:24:50;92652.81;;;11.43;100.00
6198;BME280;3132;42.622;23.328;2023-05-23T03:27:15;92651.75;;;11.67;100.00
6198;BME280;3132;42.622;23.328;2023-05-23T03:29:41;92663.31;;;11.80;100.00
6198;BME280;3132;42.622;23.328;2023-05-23T03:32:06;92665.00;;;11.71;100.00
6198;BME280;3132;42.622;23.328;2023-05-23T03:34:32;92669.31;;;12.31;100.00
6198;BME280;3132;42.622;23.328;2023-05-23T03:36:58;92662.94;;;12.37;100.00
6198;BME280;3132;42.622;23.328;2023-05-23T03:39:24;92666.78;;;12.26;100.00
6198;BME280;3132;42.622;23.328;2023-05-23T03:41:49;92674.88;;;12.43;100.00
6198;BME280;3132;42.622;23.328;2023-05-23T03:44:15;92688.47;;;13.45;100.00
6198;BME280;3132;42.622;23.328;2023-05-23T03:46:41;92685.66;;;13.41;100.00
6198;BME280;3132;42.622;23.328;2023-05-23T03:49:07;92690.78;;;13.46;100.00
6198;BME280;3132;42.622;23.328;2023-05-23T03:51:33;92690.22;;;13.22;100.00
6198;BME280;3132;42.622;23.328;2023-05-23T03:53:58;92687.88;;;13.34;100.00
6198;BME280;3132;42.622;23.328;2023-05-23T03:56:23;92690.22;;;13.22;100.00
6198;BME280;3132;42.622;23.328;2023-05-23T03:58:50;92685.94;;;13.26;100.00
6198;BME280;3132;42.622;23.328;2023-05-23T04:01:15;92690.97;;;13.36;100.00
6198;BME280;3132;42.622;23.328;2023-05-23T04:03:41;92679.09;;;12.98;100.00
6198;BME280;3132;42.622;23.328;2023-05-23T04:06:06;92687.25;;;13.64;100.00
6198;BME280;3132;42.622;23.328;2023-05-23T04:08:32;92682.50;;;13.88;100.00
6198;BME280;3132;42.622;23.328;2023-05-23T04:11:00;92702.81;;;13.61;100.00
6198;BME280;3132;42.622;23.328;2023-05-23T04:13:29;92699.13;;;13.48;100.00
6198;BME280;3132;42.622;23.328;2023-05-23T04:15:55;92693.41;;;13.33;100.00
6198;BME280;3132;42.622;23.328;2023-05-23T04:18:21;92688.47;;;13.04;100.00
6198;BME280;3132;42.622;23.328;2023-05-23T04:20:46;92675.66;;;13.16;100.00
6198;BME280;3132;42.622;23.328;2023-05-23T04:23:12;92689.31;;;13.40;100.00
6198;BME280;3132;42.622;23.328;2023-05-23T04:25:37;92684.34;;;13.66;100.00
6198;BME280;3132;42.622;23.328;2023-05-23T04:28:04;92683.75;;;13.69;100.00
6198;BME280;3132;42.622;23.328;2023-05-23T04:30:30;92696.66;;;13.79;100.00
6198;BME280;3132;42.622;23.328;2023-05-23T04:32:55;92684.06;;;13.40;100.00
6198;BME280;3132;42.622;23.328;2023-05-23T04:35:24;92691.97;;;13.27;100.00
6198;BME280;3132;42.622;23.328;2023-05-23T04:37:50;92694.03;;;13.65;100.00
6198;BME280;3132;42.622;23.328;2023-05-23T04:40:23;92682.56;;;13.75;100.00
6198;BME280;3132;42.622;23.328;2023-05-23T04:42:49;92694.06;;;13.52;100.00
6198;BME280;3132;42.622;23.328;2023-05-23T04:45:16;92695.41;;;13.63;100.00
6198;BME280;3132;42.622;23.328;2023-05-23T04:47:43;92682.00;;;13.64;100.00
6198;BME280;3132;42.622;23.328;2023-05-23T04:50:10;92699.78;;;12.86;100.00
6198;BME280;3132;42.622;23.328;2023-05-23T04:52:35;92682.31;;;12.95;100.00
6198;BME280;3132;42.622;23.328;2023-05-23T04:55:00;92700.13;;;13.12;100.00
6198;BME280;3132;42.622;23.328;2023-05-23T04:57:26;92688.78;;;12.70;100.00
6198;BME280;3132;42.622;23.328;2023-05-23T04:59:51;92711.25;;;12.90;100.00
6198;BME280;3132;42.622;23.328;2023-05-23T05:02:17;92705.94;;;13.09;100.00
6198;BME280;3132;42.622;23.328;2023-05-23T05:04:43;92704.28;;;13.13;100.00
6198;BME280;3132;42.622;23.328;2023-05-23T05:07:08;92709.16;;;13.06;100.00
6198;BME280;3132;42.622;23.328;2023-05-23T05:09:34;92695.91;;;12.97;100.00
6198;BME280;3132;42.622;23.328;2023-05-23T05:12:00;92714.44;;;12.87;100.00
6198;BME280;3132;42.622;23.328;2023-05-23T05:14:25;92692.06;;;12.62;100.00
6198;BME280;3132;42.622;23.328;2023-05-23T05:16:51;92726.81;;;13.00;100.00
6198;BME280;3132;42.622;23.328;2023-05-23T05:19:19;92727.00;;;13.04;100.00
6198;BME280;3132;42.622;23.328;2023-05-23T05:21:45;92727.06;;;12.85;100.00
6198;BME280;3132;42.622;23.328;2023-05-23T05:24:10;92713.84;;;12.44;100.00
6198;BME280;3132;42.622;23.328;2023-05-23T05:26:36;92699.19;;;12.89;100.00
6198;BME280;3132;42.622;23.328;2023-05-23T05:29:02;92719.94;;;13.04;100.00
6198;BME280;3132;42.622;23.328;2023-05-23T05:31:27;92717.53;;;12.89;100.00
6198;BME280;3132;42.622;23.328;2023-05-23T05:33:53;92697.00;;;12.64;100.00
6198;BME280;3132;42.622;23.328;2023-05-23T05:36:19;92719.00;;;12.95;100.00
6198;BME280;3132;42.622;23.328;2023-05-23T05:38:46;92721.63;;;13.90;100.00
6198;BME280;3132;42.622;23.328;2023-05-23T05:41:11;92731.66;;;14.68;100.00
6198;BME280;3132;42.622;23.328;2023-05-23T05:43:37;92728.56;;;15.27;97.18
6198;BME280;3132;42.622;23.328;2023-05-23T05:46:02;92735.66;;;15.57;94.92
6198;BME280;3132;42.622;23.328;2023-05-23T05:48:28;92734.03;;;15.95;93.68
6198;BME280;3132;42.622;23.328;2023-05-23T05:50:53;92731.66;;;17.59;84.54
6198;BME280;3132;42.622;23.328;2023-05-23T05:53:18;92755.03;;;19.78;74.14
6198;BME280;3132;42.622;23.328;2023-05-23T05:55:44;92756.44;;;20.36;70.07
6198;BME280;3132;42.622;23.328;2023-05-23T05:58:09;92764.47;;;22.40;63.98
6198;BME280;3132;42.622;23.328;2023-05-23T06:00:34;92755.97;;;23.45;59.44
6198;BME280;3132;42.622;23.328;2023-05-23T06:03:09;92757.47;;;24.33;53.80
6198;BME280;3132;42.622;23.328;2023-05-23T06:05:35;92765.78;;;26.81;48.36
6198;BME280;3132;42.622;23.328;2023-05-23T06:08:02;92743.59;;;28.29;43.79
6198;BME280;3132;42.622;23.328;2023-05-23T06:10:27;92757.94;;;29.47;40.70
6198;BME280;3132;42.622;23.328;2023-05-23T06:12:52;92766.84;;;30.98;37.13
6198;BME280;3132;42.622;23.328;2023-05-23T06:15:18;92761.34;;;30.24;36.73
6198;BME280;3132;42.622;23.328;2023-05-23T06:17:43;92759.09;;;30.63;36.26
6198;BME280;3132;42.622;23.328;2023-05-23T06:20:09;92760.22;;;29.52;39.27
6198;BME280;3132;42.622;23.328;2023-05-23T06:22:35;92775.63;;;31.05;35.82
6198;BME280;3132;42.622;23.328;2023-05-23T06:25:01;92774.47;;;29.42;38.71
6198;BME280;3132;42.622;23.328;2023-05-23T06:27:26;92769.63;;;28.95;39.19
6198;BME280;3132;42.622;23.328;2023-05-23T06:29:52;92768.06;;;27.61;43.57
6198;BME280;3132;42.622;23.328;2023-05-23T06:32:17;92770.75;;;27.68;43.93
6198;BME280;3132;42.622;23.328;2023-05-23T06:34:42;92767.00;;;28.64;40.51
6198;BME280;3132;42.622;23.328;2023-05-23T06:37:08;92761.94;;;27.71;42.68
6198;BME280;3132;42.622;23.328;2023-05-23T06:39:33;92766.53;;;24.28;51.55
6198;BME280;3132;42.622;23.328;2023-05-23T06:41:59;92759.53;;;22.23;59.44
6198;BME280;3132;42.622;23.328;2023-05-23T06:44:25;92762.06;;;19.38;71.34
6198;BME280;3132;42.622;23.328;2023-05-23T06:46:50;92754.41;;;18.10;77.41
6198;BME280;3132;42.622;23.328;2023-05-23T06:49:24;92741.97;;;19.37;72.94
6198;BME280;3132;42.622;23.328;2023-05-23T06:51:50;92740.63;;;18.66;74.19
6198;BME280;3132;42.622;23.328;2023-05-23T06:54:16;92742.09;;;18.34;76.25
6198;BME280;3132;42.622;23.328;2023-05-23T06:56:41;92739.38;;;18.02;78.98
6198;BME280;3132;42.622;23.328;2023-05-23T06:59:07;92736.09;;;17.76;83.13
6198;BME280;3132;42.622;23.328;2023-05-23T07:01:32;92730.09;;;17.96;81.41
6198;BME280;3132;42.622;23.328;2023-05-23T07:03:58;92727.25;;;18.01;79.50
6198;BME280;3132;42.622;23.328;2023-05-23T07:06:23;92720.34;;;17.88;81.68
6198;BME280;3132;42.622;23.328;2023-05-23T07:08:49;92729.50;;;18.11;79.78
6198;BME280;3132;42.622;23.328;2023-05-23T07:11:15;92731.88;;;17.83;81.67
6198;BME280;3132;42.622;23.328;2023-05-23T07:13:40;92709.38;;;17.77;85.93
6198;BME280;3132;42.622;23.328;2023-05-23T07:16:05;92723.72;;;18.17;81.79
6198;BME280;3132;42.622;23.328;2023-05-23T07:18:31;92715.19;;;18.12;81.46
6198;BME280;3132;42.622;23.328;2023-05-23T07:20:56;92707.84;;;17.97;83.93
6198;BME280;3132;42.622;23.328;2023-05-23T07:23:22;92716.09;;;17.66;86.11
6198;BME280;3132;42.622;23.328;2023-05-23T07:25:48;92712.53;;;17.62;91.30
6198;BME280;3132;42.622;23.328;2023-05-23T07:28:14;92718.63;;;18.12;85.79
6198;BME280;3132;42.622;23.328;2023-05-23T07:30:40;92703.81;;;17.99;87.49
6198;BME280;3132;42.622;23.328;2023-05-23T07:33:06;92708.38;;;18.31;80.97
6198;BME280;3132;42.622;23.328;2023-05-23T07:35:32;92706.44;;;17.99;81.50
6198;BME280;3132;42.622;23.328;2023-05-23T07:37:57;92717.00;;;17.99;83.40
6198;BME280;3132;42.622;23.328;2023-05-23T07:40:22;92714.00;;;18.30;81.42
6198;BME280;3132;42.622;23.328;2023-05-23T07:42:48;92697.63;;;18.36;84.20
6198;BME280;3132;42.622;23.328;2023-05-23T07:45:13;92717.00;;;18.49;81.18
6198;BME280;3132;42.622;23.328;2023-05-23T07:47:39;92710.63;;;18.62;80.34
6198;BME280;3132;42.622;23.328;2023-05-23T07:50:05;92708.25;;;18.28;80.09
6198;BME280;3132;42.622;23.328;2023-05-23T07:52:31;92706.66;;;18.56;78.88
6198;BME280;3132;42.622;23.328;2023-05-23T07:54:57;92712.53;;;18.61;77.75
6198;BME280;3132;42.622;23.328;2023-05-23T07:57:22;92705.09;;;18.55;79.13
6198;BME280;3132;42.622;23.328;2023-05-23T07:59:52;92694.28;;;18.80;81.22
6198;BME280;3132;42.622;23.328;2023-05-23T08:02:18;92704.16;;;19.04;77.49
6198;BME280;3132;42.622;23.328;2023-05-23T08:04:45;92700.06;;;18.94;75.83
6198;BME280;3132;42.622;23.328;2023-05-23T08:07:10;92707.22;;;18.94;76.67
6198;BME280;3132;42.622;23.328;2023-05-23T08:09:37;92705.88;;;18.88;79.69
6198;BME280;3132;42.622;23.328;2023-05-23T08:12:04;92705.47;;;18.98;79.48
6198;BME280;3132;42.622;23.328;2023-05-23T08:14:30;92700.81;;;18.83;75.69
6198;BME280;3132;42.622;23.328;2023-05-23T08:16:55;92679.00;;;18.86;75.83
6198;BME280;3132;42.622;23.328;2023-05-23T08:19:21;92704.41;;;19.11;73.67
6198;BME280;3132;42.622;23.328;2023-05-23T08:21:46;92705.28;;;19.15;76.53
6198;BME280;3132;42.622;23.328;2023-05-23T08:24:12;92700.25;;;19.22;75.87
6198;BME280;3132;42.622;23.328;2023-05-23T08:26:38;92701.13;;;19.26;76.86
6198;BME280;3132;42.622;23.328;2023-05-23T08:29:03;92707.81;;;19.56;76.48
6198;BME280;3132;42.622;23.328;2023-05-23T08:31:30;92694.97;;;19.46;74.69
6198;BME280;3132;42.622;23.328;2023-05-23T08:33:56;92694.00;;;18.94;75.77
6198;BME280;3132;42.622;23.328;2023-05-23T08:36:21;92697.31;;;19.03;78.12
6198;BME280;3132;42.622;23.328;2023-05-23T08:38:48;92697.47;;;19.18;69.07
6198;BME280;3132;42.622;23.328;2023-05-23T08:41:18;92700.28;;;19.46;64.34
6198;BME280;3132;42.622;23.328;2023-05-23T08:43:44;92706.81;;;19.61;64.76
6198;BME280;3132;42.622;23.328;2023-05-23T08:46:11;92704.59;;;19.87;63.02
6198;BME280;3132;42.622;23.328;2023-05-23T08:48:37;92705.47;;;19.79;65.49
6198;BME280;3132;42.622;23.328;2023-05-23T08:51:03;92708.66;;;19.96;65.80
6198;BME280;3132;42.622;23.328;2023-05-23T08:53:30;92689.41;;;20.11;66.38
6198;BME280;3132;42.622;23.328;2023-05-23T08:55:58;92701.34;;;20.29;63.53
6198;BME280;3132;42.622;23.328;2023-05-23T08:58:30;92709.44;;;20.21;61.83
6198;BME280;3132;42.622;23.328;2023-05-23T09:00:56;92704.69;;;20.14;59.09
6198;BME280;3132;42.622;23.328;2023-05-23T09:03:25;92718.34;;;20.40;60.37
6198;BME280;3132;42.622;23.328;2023-05-23T09:05:52;92702.56;;;20.59;58.62
6198;BME280;3132;42.622;23.328;2023-05-23T09:08:18;92702.91;;;20.58;54.58
6198;BME280;3132;42.622;23.328;2023-05-23T09:10:44;92714.06;;;20.63;55.48
6198;BME280;3132;42.622;23.328;2023-05-23T09:13:10;92711.25;;;20.72;53.91
6198;BME280;3132;42.622;23.328;2023-05-23T09:15:38;92702.88;;;20.30;54.55
6198;BME280;3132;42.622;23.328;2023-05-23T09:18:03;92706.28;;;20.70;53.87
6198;BME280;3132;42.622;23.328;2023-05-23T09:20:29;92701.44;;;20.73;53.22
6198;BME280;3132;42.622;23.328;2023-05-23T09:22:55;92705.44;;;20.66;55.54
6198;BME280;3132;42.622;23.328;2023-05-23T09:25:20;92692.56;;;20.41;54.53
6198;BME280;3132;42.622;23.328;2023-05-23T09:27:46;92705.28;;;20.47;52.86
6198;BME280;3132;42.622;23.328;2023-05-23T09:30:12;92690.94;;;20.36;49.24
6198;BME280;3132;42.622;23.328;2023-05-23T09:32:38;92696.25;;;20.36;51.58
6198;BME280;3132;42.622;23.328;2023-05-23T09:35:05;92693.53;;;20.48;52.83
6198;BME280;3132;42.622;23.328;2023-05-23T09:37:37;92691.28;;;20.62;51.96
6198;BME280;3132;42.622;23.328;2023-05-23T09:40:11;92699.56;;;20.73;52.15
6198;BME280;3132;42.622;23.328;2023-05-23T09:42:43;92700.69;;;20.88;50.43
6198;BME280;3132;42.622;23.328;2023-05-23T09:45:10;92690.25;;;20.39;50.65
6198;BME280;3132;42.622;23.328;2023-05-23T09:47:35;92688.09;;;20.17;52.47
6198;BME280;3132;42.622;23.328;2023-05-23T09:50:01;92690.41;;;20.31;52.77
6198;BME280;3132;42.622;23.328;2023-05-23T09:52:35;92677.91;;;20.31;51.19
6198;BME280;3132;42.622;23.328;2023-05-23T09:55:00;92694.97;;;20.18;51.40
6198;BME280;3132;42.622;23.328;2023-05-23T09:57:26;92686.34;;;20.21;53.67
6198;BME280;3132;42.622;23.328;2023-05-23T09:59:52;92663.13;;;20.30;56.53
6198;BME280;3132;42.622;23.328;2023-05-23T10:05:03;92687.63;;;20.95;50.93
6198;BME280;3132;42.622;23.328;2023-05-23T10:07:31;92686.31;;;20.89;49.96
6198;BME280;3132;42.622;23.328;2023-05-23T10:10:02;92654.81;;;20.59;48.02
6198;BME280;3132;42.622;23.328;2023-05-23T10:15:04;92688.53;;;20.87;48.20
6198;BME280;3132;42.622;23.328;2023-05-23T10:20:10;92681.22;;;20.96;49.36
6198;BME280;3132;42.622;23.328;2023-05-23T10:22:37;92664.97;;;21.13;48.19
6198;BME280;3132;42.622;23.328;2023-05-23T10:25:03;92676.47;;;21.17;47.93
6198;BME280;3132;42.622;23.328;2023-05-23T10:27:35;92660.59;;;21.20;48.45
6198;BME280;3132;42.622;23.328;2023-05-23T10:30:02;92672.03;;;20.93;47.15
6198;BME280;3132;42.622;23.328;2023-05-23T10:32:28;92668.84;;;20.88;47.98
6198;BME280;3132;42.622;23.328;2023-05-23T10:37:58;92658.38;;;21.07;46.81
6198;BME280;3132;42.622;23.328;2023-05-23T10:40:36;92671.81;;;21.29;46.55
6198;BME280;3132;42.622;23.328;2023-05-23T10:43:17;92667.00;;;21.04;44.76
6198;BME280;3132;42.622;23.328;2023-05-23T10:45:45;92648.25;;;20.97;46.21
6198;BME280;3132;42.622;23.328;2023-05-23T10:51:21;92645.69;;;20.73;48.16
6198;BME280;3132;42.622;23.328;2023-05-23T10:53:53;92643.06;;;20.88;46.49
6198;BME280;3132;42.622;23.328;2023-05-23T10:56:22;92660.88;;;21.31;47.57
6198;BME280;3132;42.622;23.328;2023-05-23T10:58:55;92654.88;;;21.34;48.49
6198;BME280;3132;42.622;23.328;2023-05-23T11:01:22;92661.88;;;21.42;49.92
6198;BME280;3132;42.622;23.328;2023-05-23T11:03:50;92665.22;;;21.54;46.33
6198;BME280;3132;42.622;23.328;2023-05-23T11:06:43;92630.88;;;20.99;41.26
6198;BME280;3132;42.622;23.328;2023-05-23T11:09:13;92650.56;;;21.14;43.44
6198;BME280;3132;42.622;23.328;2023-05-23T11:12:04;92635.78;;;20.42;43.79
6198;BME280;3132;42.622;23.328;2023-05-23T11:19:38;92643.91;;;21.20;43.17
6198;BME280;3132;42.622;23.328;2023-05-23T11:22:07;92648.59;;;21.26;43.52
6198;BME280;3132;42.622;23.328;2023-05-23T11:24:54;92645.53;;;21.24;48.43
6198;BME280;3132;42.622;23.328;2023-05-23T11:27:31;92624.28;;;21.40;43.34
6198;BME280;3132;42.622;23.328;2023-05-23T11:32:34;92625.56;;;21.46;42.86
6198;BME280;3132;42.622;23.328;2023-05-23T11:35:01;92626.66;;;21.45;43.89
6198;BME280;3132;42.622;23.328;2023-05-23T11:37:28;92631.63;;;21.00;41.85
6198;BME280;3132;42.622;23.328;2023-05-23T11:39:55;92632.94;;;21.37;43.28
6198;BME280;3132;42.622;23.328;2023-05-23T11:42:21;92625.72;;;21.53;42.67
6198;BME280;3132;42.622;23.328;2023-05-23T11:44:50;92625.34;;;21.70;43.61
6198;BME280;3132;42.622;23.328;2023-05-23T11:47:17;92590.06;;;21.54;41.72
6198;BME280;3132;42.622;23.328;2023-05-23T11:49:45;92612.63;;;21.29;42.10
6198;BME280;3132;42.622;23.328;2023-05-23T11:52:11;92611.06;;;21.28;44.22
6198;BME280;3132;42.622;23.328;2023-05-23T11:54:39;92627.59;;;21.68;43.65
6198;BME280;3132;42.622;23.328;2023-05-23T11:57:05;92622.09;;;21.76;40.91
6198;BME280;3132;42.622;23.328;2023-05-23T11:59:30;92605.22;;;21.69;39.26
6198;BME280;3132;42.622;23.328;2023-05-23T12:01:56;92610.78;;;21.64;40.18
6198;BME280;3132;42.622;23.328;2023-05-23T12:04:21;92603.50;;;21.61;41.07
6198;BME280;3132;42.622;23.328;2023-05-23T12:06:47;92607.69;;;21.93;42.13
6198;BME280;3132;42.622;23.328;2023-05-23T12:09:14;92606.19;;;21.95;43.12
6198;BME280;3132;42.622;23.328;2023-05-23T12:11:41;92588.63;;;21.91;42.70
6198;BME280;3132;42.622;23.328;2023-05-23T12:14:07;92601.78;;;22.03;41.61
6198;BME280;3132;42.622;23.328;2023-05-23T12:16:33;92601.59;;;22.11;43.79
6198;BME280;3132;42.622;23.328;2023-05-23T12:19:00;92602.22;;;22.05;42.48
6198;BME280;3132;42.622;23.328;2023-05-23T12:21:31;92597.03;;;21.93;42.53
6198;BME280;3132;42.622;23.328;2023-05-23T12:24:14;92597.53;;;21.98;41.81
6198;BME280;3132;42.622;23.328;2023-05-23T12:26:47;92587.25;;;21.97;42.26
6198;BME280;3132;42.622;23.328;2023-05-23T12:29:12;92595.34;;;22.04;40.52
6198;BME280;3132;42.622;23.328;2023-05-23T12:31:37;92587.06;;;21.90;39.14
6198;BME280;3132;42.622;23.328;2023-05-23T12:34:03;92575.72;;;21.74;42.62
6198;BME280;3132;42.622;23.328;2023-05-23T12:36:28;92560.44;;;21.86;41.10
6198;BME280;3132;42.622;23.328;2023-05-23T12:39:02;92579.25;;;21.97;41.57
6198;BME280;3132;42.622;23.328;2023-05-23T12:41:27;92568.16;;;21.91;40.56
6198;BME280;3132;42.622;23.328;2023-05-23T12:43:54;92569.88;;;22.03;42.15
6198;BME280;3132;42.622;23.328;2023-05-23T12:46:22;92574.81;;;21.51;43.51
6198;BME280;3132;42.622;23.328;2023-05-23T12:48:48;92555.47;;;21.35;41.97
6198;BME280;3132;42.622;23.328;2023-05-23T12:51:14;92567.84;;;21.27;40.91
6198;BME280;3132;42.622;23.328;2023-05-23T12:53:40;92566.94;;;20.77;43.01
6198;BME280;3132;42.622;23.328;2023-05-23T12:56:05;92568.84;;;20.92;42.92
6198;BME280;3132;42.622;23.328;2023-05-23T12:58:31;92563.38;;;21.16;44.58
6198;BME280;3132;42.622;23.328;2023-05-23T13:00:57;92556.31;;;21.39;42.06
6198;BME280;3132;42.622;23.328;2023-05-23T13:03:23;92555.09;;;21.52;44.46
6198;BME280;3132;42.622;23.328;2023-05-23T13:05:49;92553.50;;;21.82;40.48
6198;BME280;3132;42.622;23.328;2023-05-23T13:08:15;92562.00;;;21.72;41.92
6198;BME280;3132;42.622;23.328;2023-05-23T13:10:40;92545.25;;;21.87;42.28
6198;BME280;3132;42.622;23.328;2023-05-23T13:13:06;92542.53;;;22.21;41.54
6198;BME280;3132;42.622;23.328;2023-05-23T13:15:31;92556.38;;;22.31;40.44
6198;BME280;3132;42.622;23.328;2023-05-23T13:17:57;92545.53;;;22.39;37.71
6198;BME280;3132;42.622;23.328;2023-05-23T13:20:22;92540.75;;;22.48;38.53
6198;BME280;3132;42.622;23.328;2023-05-23T13:22:47;92537.72;;;22.69;38.66
6198;BME280;3132;42.622;23.328;2023-05-23T13:25:14;92548.19;;;22.81;37.71
6198;BME280;3132;42.622;23.328;2023-05-23T13:27:39;92536.13;;;22.64;36.71
6198;BME280;3132;42.622;23.328;2023-05-23T13:30:05;92543.47;;;22.93;38.04
6198;BME280;3132;42.622;23.328;2023-05-23T13:32:31;92544.31;;;22.97;36.16
6198;BME280;3132;42.622;23.328;2023-05-23T13:34:56;92532.81;;;22.93;35.25